Meridianville, AL

10:37 AM CST on November 26, 2014 (GMT -0600)
Huntsville Madison | Change Station
CLOSE
Current Station
Airport
Location: Huntsville Madison,
Elevation: 755 ft
Nearby Weather Stations

Elev 755 ft 34.86 °N, 86.56 °W | Updated 22 minutes ago

Clear
Clear
45 °F
Feels Like 43 °F
N
4
Wind Variable Wind from NNW

Today
High -- | Low -- °F
--% Chance of Precip.
Yesterday
High -- | Low -- °F
Precip. -- in
6:31 AM 4:35 PM
Waxing Crescent, 21% visible
Pressure 30.16 in
Visibility 10.0 miles
Clouds Clear
Windchill 43 °F
Dew Point 25 °F
Humidity 46%
Rainfall 0.00 in
Snow Depth Not available.
UV 3 out of 12
Pollen .10 out of 12
Air Quality Not available.
Flu Activity Not available.
METAR KMDQ 261615Z AUTO 33003KT 10SM CLR 07/M04 A3016 RMK AO2

More Conditions Fewer Conditions

Pressure 30.16 in
Visibility 10.0 miles
Clouds Clear
Windchill 43 °F
Dew Point 25 °F
Humidity 46%
Rainfall 0.00 in
Snow Depth Not available.
UV 3 out of 12
Pollen .10 out of 12
Air Quality Not available.
Flu Activity Not available.
METAR KMDQ 261615Z AUTO 33003KT 10SM CLR 07/M04 A3016 RMK AO2

More Conditions Fewer Conditions

10-Day Weather Forecast

Almanac

Astronomy

Nov. 26, 2014 Rise Set
Actual Time
Civil Twilight
Nautical Twilight
Astronomical Twilight
Moon
Length of Visible Light
Length of Day
Tomorrow will be .
, % of the Moon is Illuminated

Today's Extremes

State Highs State Lows

Community

WunderPhotos

Upload Photos

1,773,789 photos uploaded!

WunderBlogs® & News

Nearby

Air Quality

  Air Quality AQ Index Pollutant
Not available.

Snow Depth

Station Depth Elevation

Earthquake Activity

City Distance Mag. Time & Date
Minimum magnitude displayed is 2.5.

Coastal Water Temperatures

Place Temperature

Nearby Weather Stations